Time;durP1;ratioP1;P1;durP2;ratioP2;P2;SDS_P1;SDS_P2;PMS_P1;PMS_P2;Temp;Humidity;BMP_temperature;BMP_pressure;BME280_temperature;BME280_humidity;BME280_pressure;Samples;Min_cycle;Max_cycle;Signal;HPM_P1;HPM_P2
2023/01/12 00:01:36;;;;;;;7.40;1.50;;;;;;;7.61;84.26;100208.52;107251;1251;60048;-77
2023/01/12 00:04:03;;;;;;;6.20;1.30;;;;;;;7.54;84.55;100207.73;107049;1251;60296;-76
2023/01/12 00:06:31;;;;;;;5.50;1.30;;;;;;;7.48;85.42;100205.41;107215;1253;72760;-76
2023/01/12 00:09:02;;;;;;;8.40;1.50;;;;;;;7.45;85.44;100201.68;107026;1253;72299;-76
2023/01/12 00:11:29;;;;;;;6.60;1.40;;;;;;;7.43;85.78;100196.95;106960;1257;71228;-76
2023/01/12 00:13:57;;;;;;;5.50;1.50;;;;;;;7.41;85.91;100195.09;107247;1251;60306;-75
2023/01/12 00:16:34;;;;;;;7.20;1.40;;;;;;;7.41;85.52;100196.52;107276;1251;60527;-75
2023/01/12 00:19:02;;;;;;;7.30;1.20;;;;;;;7.41;85.27;100198.72;106764;1251;73109;-75
2023/01/12 00:21:33;;;;;;;7.70;1.70;;;;;;;7.43;85.23;100202.20;107039;1256;70069;-76
2023/01/12 00:24:00;;;;;;;5.60;1.40;;;;;;;7.45;84.88;100197.09;107408;1251;71382;-76
2023/01/12 00:26:27;;;;;;;6.80;1.70;;;;;;;7.46;84.81;100198.55;107118;1251;61504;-75
2023/01/12 00:28:54;;;;;;;5.70;1.40;;;;;;;7.50;84.78;100197.65;107221;1251;60801;-76
2023/01/12 00:31:21;;;;;;;6.70;1.60;;;;;;;7.50;84.68;100197.20;107104;1251;72454;-74
2023/01/12 00:33:48;;;;;;;5.30;1.40;;;;;;;7.53;84.48;100196.20;107214;1251;71643;-75
2023/01/12 00:36:17;;;;;;;5.00;1.30;;;;;;;7.54;84.64;100197.67;107209;1254;72365;-75
2023/01/12 00:38:45;;;;;;;8.10;1.70;;;;;;;7.55;84.88;100194.20;107131;1251;60437;-76
2023/01/12 00:46:50;;;;;;;8.00;1.50;;;;;;;7.58;85.17;100185.63;107017;1253;70995;-75
2023/01/12 00:49:17;;;;;;;8.80;1.60;;;;;;;7.60;85.26;100196.88;107182;1251;71169;-76
2023/01/12 00:51:44;;;;;;;4.10;1.20;;;;;;;7.62;85.31;100189.95;107269;1252;60717;-75
2023/01/12 00:54:11;;;;;;;6.10;1.50;;;;;;;7.63;85.24;100188.59;107062;1251;60328;-76
2023/01/12 00:56:41;;;;;;;4.70;1.10;;;;;;;7.64;85.04;100189.14;107353;1251;72627;-75
2023/01/12 00:59:08;;;;;;;4.90;1.30;;;;;;;7.67;85.31;100192.05;107010;1254;72962;-77
2023/01/12 01:01:39;;;;;;;5.30;1.20;;;;;;;7.68;85.24;100183.65;107426;1252;73000;-75
2023/01/12 01:04:06;;;;;;;5.90;1.40;;;;;;;7.70;85.51;100185.67;107505;1251;60968;-76
2023/01/12 01:06:36;;;;;;;7.70;1.60;;;;;;;7.71;85.31;100194.09;107461;1251;60990;-76
2023/01/12 01:09:12;;;;;;;6.80;1.20;;;;;;;7.73;85.65;100191.66;107215;1253;72646;-77
2023/01/12 01:11:42;;;;;;;5.50;1.50;;;;;;;7.76;85.76;100190.47;107144;1253;70418;-75
2023/01/12 01:14:09;;;;;;;7.10;1.70;;;;;;;7.77;85.43;100189.91;107186;1252;71456;-75
2023/01/12 01:16:36;;;;;;;5.30;1.20;;;;;;;7.78;85.56;100186.96;107317;1251;60455;-75
2023/01/12 01:19:04;;;;;;;6.40;1.20;;;;;;;7.80;85.32;100180.06;107152;1251;60385;-77
2023/01/12 01:21:33;;;;;;;6.90;1.40;;;;;;;7.84;84.91;100175.71;107137;1251;73041;-77
2023/01/12 01:24:00;;;;;;;5.50;1.40;;;;;;;7.86;84.65;100175.73;107077;1256;70124;-76
2023/01/12 01:26:30;;;;;;;6.40;1.50;;;;;;;7.89;84.96;100180.50;107022;1253;72009;-76
2023/01/12 01:28:57;;;;;;;6.00;1.20;;;;;;;7.90;84.50;100181.76;107064;1251;60459;-75
2023/01/12 01:31:25;;;;;;;4.50;1.30;;;;;;;7.92;84.25;100171.51;107240;1252;60762;-76
2023/01/12 01:33:55;;;;;;;5.70;1.50;;;;;;;7.95;83.94;100172.42;107108;1251;73010;-76
2023/01/12 01:36:22;;;;;;;6.80;1.40;;;;;;;7.96;83.60;100176.16;107180;1252;69825;-77
2023/01/12 01:38:52;;;;;;;6.10;1.10;;;;;;;8.00;83.33;100183.31;107263;1253;71199;-76
2023/01/12 01:41:21;;;;;;;5.00;1.10;;;;;;;8.04;83.24;100167.90;107687;1251;61929;-75
2023/01/12 01:43:53;;;;;;;6.70;1.40;;;;;;;8.09;82.99;100168.62;108858;1253;60005;-74
2023/01/12 01:46:50;;;;;;;7.90;1.50;;;;;;;8.12;82.62;100168.44;107326;1251;74183;-76
2023/01/12 01:49:35;;;;;;;5.00;1.20;;;;;;;8.18;81.88;100175.34;107662;1251;69217;-75
2023/01/12 01:52:07;;;;;;;5.30;1.00;;;;;;;8.22;81.87;100163.10;107169;1253;71760;-77
2023/01/12 01:54:45;;;;;;;4.00;0.80;;;;;;;8.26;81.48;100154.41;107224;1251;59767;-75
2023/01/12 01:57:14;;;;;;;3.90;0.80;;;;;;;8.29;81.37;100160.90;106953;1251;60540;-76
2023/01/12 01:59:50;;;;;;;5.40;1.00;;;;;;;8.33;80.93;100159.47;107220;1251;72349;-74
2023/01/12 02:02:17;;;;;;;5.00;0.80;;;;;;;8.38;80.92;100179.05;107495;1251;69707;-77
2023/01/12 02:04:45;;;;;;;4.10;0.70;;;;;;;8.42;80.75;100175.41;107015;1251;71474;-79
2023/01/12 02:07:12;;;;;;;3.00;1.00;;;;;;;8.45;80.84;100150.17;107387;1253;60642;-76
2023/01/12 02:09:43;;;;;;;3.00;0.60;;;;;;;8.46;81.25;100160.92;107746;1253;60383;-75
2023/01/12 02:18:10;;;;;;;4.10;0.90;;;;;;;8.38;83.16;100154.77;106939;1253;71458;-76
2023/01/12 02:21:07;;;;;;;2.50;0.60;;;;;;;8.34;83.95;100151.08;107432;1251;60479;-75
2023/01/12 02:24:14;;;;;;;3.30;0.80;;;;;;;8.28;85.29;100155.92;106993;1253;60419;-75
2023/01/12 02:27:06;;;;;;;3.80;0.80;;;;;;;8.21;86.23;100151.77;107324;1252;73676;-74
2023/01/12 02:30:02;;;;;;;3.90;1.00;;;;;;;8.18;86.63;100150.12;106839;1251;71600;-82
2023/01/12 02:32:57;;;;;;;3.00;0.90;;;;;;;8.12;87.52;100154.42;107196;1252;71439;-75
2023/01/12 02:35:51;;;;;;;3.00;0.90;;;;;;;8.10;87.41;100151.39;107251;1251;60659;-76
2023/01/12 02:38:38;;;;;;;4.60;1.00;;;;;;;8.10;87.85;100140.99;107341;1253;60328;-75
2023/01/12 02:44:25;;;;;;;4.90;1.20;;;;;;;8.09;88.11;100140.41;107100;1251;72270;-75
2023/01/12 02:46:54;;;;;;;4.90;1.20;;;;;;;8.07;88.09;100130.61;109005;1252;73849;-75
2023/01/12 02:49:25;;;;;;;4.80;1.20;;;;;;;8.06;88.28;100124.67;109234;1254;59621;-75
2023/01/12 02:52:02;;;;;;;4.00;0.90;;;;;;;8.07;87.94;100125.46;108232;1252;59164;-74
2023/01/12 02:54:32;;;;;;;3.80;0.90;;;;;;;8.10;88.21;100118.24;108524;1253;74072;-76
2023/01/12 02:57:05;;;;;;;5.60;1.10;;;;;;;8.10;87.91;100121.21;106658;1257;69894;-76
2023/01/12 02:59:35;;;;;;;5.70;1.50;;;;;;;8.10;87.60;100120.86;106388;1252;71174;-74
2023/01/12 03:02:20;;;;;;;7.80;1.40;;;;;;;8.11;87.42;100119.30;106238;1253;61059;-77
2023/01/12 03:04:49;;;;;;;6.00;1.30;;;;;;;8.10;87.20;100120.65;106268;1253;60533;-75
2023/01/12 03:07:35;;;;;;;5.20;1.20;;;;;;;8.12;86.72;100111.83;106480;1256;72721;-75
2023/01/12 03:10:33;;;;;;;6.00;1.10;;;;;;;8.14;87.00;100106.17;106357;1254;71030;-75
2023/01/12 03:13:05;;;;;;;3.70;1.10;;;;;;;8.18;86.70;100110.11;106144;1253;72441;-77
2023/01/12 03:15:40;;;;;;;4.80;1.30;;;;;;;8.20;86.61;100100.06;106815;1252;60941;-76
2023/01/12 03:18:15;;;;;;;4.70;0.80;;;;;;;8.22;86.65;100105.17;106142;1253;60635;-77
2023/01/12 03:20:52;;;;;;;5.60;1.00;;;;;;;8.23;86.31;100097.94;106251;1254;72677;-75
2023/01/12 03:23:26;;;;;;;2.70;0.80;;;;;;;8.24;86.87;100109.48;106763;1256;71218;-79
2023/01/12 03:25:56;;;;;;;4.60;0.80;;;;;;;8.22;87.10;100107.26;106273;1252;71496;-75
2023/01/12 03:28:27;;;;;;;4.60;1.10;;;;;;;8.19;87.27;100115.33;106350;1253;60021;-76
2023/01/12 03:31:14;;;;;;;3.20;0.90;;;;;;;8.19;87.46;100111.34;106359;1256;60466;-81
2023/01/12 03:33:43;;;;;;;4.50;1.00;;;;;;;8.17;87.33;100114.27;106561;1253;73830;-76
2023/01/12 03:36:24;;;;;;;4.50;0.90;;;;;;;8.19;87.74;100104.27;106238;1253;70956;-76
2023/01/12 03:39:10;;;;;;;4.20;0.80;;;;;;;8.18;87.67;100100.64;106312;1253;71683;-78
2023/01/12 03:41:42;;;;;;;3.40;0.90;;;;;;;8.20;87.67;100092.84;106897;1253;60433;-76
2023/01/12 03:44:17;;;;;;;3.50;0.80;;;;;;;8.23;87.62;100099.38;106363;1257;60796;-77
2023/01/12 03:46:52;;;;;;;3.50;0.90;;;;;;;8.24;87.42;100093.23;106217;1253;73688;-76
2023/01/12 03:49:34;;;;;;;3.10;0.70;;;;;;;8.24;87.60;100093.42;106931;1253;69955;-75
2023/01/12 03:52:03;;;;;;;4.00;0.90;;;;;;;8.25;87.63;100102.88;106415;1252;71368;-76
2023/01/12 03:54:32;;;;;;;4.80;1.00;;;;;;;8.26;87.80;100092.14;106282;1259;61116;-75
2023/01/12 03:57:01;;;;;;;3.40;0.90;;;;;;;8.26;87.90;100092.30;106958;1253;60326;-76
2023/01/12 03:59:27;;;;;;;3.50;0.80;;;;;;;8.25;88.00;100092.04;107430;1253;72334;-75
2023/01/12 04:01:54;;;;;;;4.60;1.00;;;;;;;8.25;88.44;100082.55;107282;1253;69945;-74
2023/01/12 04:04:21;;;;;;;3.40;1.00;;;;;;;8.27;88.23;100082.02;107033;1253;71151;-75
2023/01/12 04:06:48;;;;;;;2.80;0.80;;;;;;;8.26;88.25;100077.58;106812;1253;60342;-75
2023/01/12 04:09:15;;;;;;;6.10;1.10;;;;;;;8.25;88.35;100071.84;106427;1252;60524;-75
2023/01/12 04:14:28;;;;;;;2.10;0.70;;;;;;;8.25;88.95;100070.23;106397;1256;69801;-72
2023/01/12 04:16:55;;;;;;;3.30;1.00;;;;;;;8.21;90.08;100068.09;106794;1253;71528;-76
2023/01/12 04:19:22;;;;;;;2.60;0.90;;;;;;;8.15;90.62;100066.20;106368;1253;60403;-76
2023/01/12 04:24:35;;;;;;;2.30;0.70;;;;;;;8.03;92.39;100061.65;106685;1253;73852;-75
2023/01/12 04:27:02;;;;;;;2.50;0.80;;;;;;;7.96;93.23;100056.61;106405;1257;69851;-76
2023/01/12 04:29:29;;;;;;;3.20;0.90;;;;;;;7.93;93.39;100058.73;106388;1252;71152;-74
2023/01/12 04:31:56;;;;;;;3.00;0.80;;;;;;;7.87;94.54;100051.80;106349;1257;60595;-76
2023/01/12 04:34:23;;;;;;;3.50;1.10;;;;;;;7.81;95.43;100051.64;106670;1253;60383;-75
2023/01/12 04:36:50;;;;;;;2.90;0.80;;;;;;;7.77;95.95;100044.00;106769;1257;73692;-75
2023/01/12 04:39:17;;;;;;;4.10;1.00;;;;;;;7.72;96.67;100042.05;106371;1252;71158;-76
2023/01/12 04:41:44;;;;;;;2.70;0.70;;;;;;;7.71;97.13;100042.55;106778;1254;71248;-77
2023/01/12 04:44:11;;;;;;;3.40;0.80;;;;;;;7.68;97.13;100033.18;106443;1253;62252;-75
2023/01/12 04:46:38;;;;;;;2.20;0.80;;;;;;;7.67;97.27;100038.60;106195;1253;60435;-78
2023/01/12 04:49:05;;;;;;;3.90;1.00;;;;;;;7.64;97.72;100032.34;106371;1253;73287;-78
2023/01/12 04:51:32;;;;;;;4.70;1.00;;;;;;;7.63;97.84;100025.10;106380;1253;69961;-80
2023/01/12 04:54:03;;;;;;;3.70;1.00;;;;;;;7.62;98.27;100025.74;106540;1258;72423;-75
2023/01/12 04:56:30;;;;;;;4.30;0.90;;;;;;;7.62;98.15;100019.13;106555;1253;60992;-76
2023/01/12 04:58:59;;;;;;;3.70;0.80;;;;;;;7.61;97.97;100019.36;106694;1257;60993;-75
2023/01/12 05:01:29;;;;;;;1.90;0.60;;;;;;;7.60;98.03;100014.02;106386;1257;74993;-77
2023/01/12 05:03:59;;;;;;;4.30;0.70;;;;;;;7.58;98.31;100007.59;106387;1253;70092;-77
2023/01/12 05:06:32;;;;;;;3.40;0.80;;;;;;;7.56;98.60;100012.23;106672;1254;72486;-76
2023/01/12 05:11:45;;;;;;;3.40;0.70;;;;;;;7.57;98.82;100002.35;106359;1253;60489;-74
2023/01/12 05:14:12;;;;;;;2.90;0.60;;;;;;;7.57;98.60;99999.06;107525;1252;73866;-76
2023/01/12 05:16:40;;;;;;;3.40;0.80;;;;;;;7.55;99.46;99999.80;106188;1253;69674;-77
2023/01/12 05:19:07;;;;;;;3.30;0.70;;;;;;;7.53;99.27;99993.98;106384;1254;71921;-78
2023/01/12 05:21:35;;;;;;;2.50;0.70;;;;;;;7.54;99.50;99992.02;106533;1256;60538;-77
2023/01/12 05:24:02;;;;;;;3.10;0.60;;;;;;;7.50;99.88;99987.81;106521;1257;61699;-77
2023/01/12 05:26:28;;;;;;;4.20;0.90;;;;;;;7.50;99.82;99983.67;106453;1253;73596;-77
2023/01/12 05:28:55;;;;;;;2.90;0.60;;;;;;;7.47;100.00;99981.29;106547;1254;71187;-76
2023/01/12 05:31:23;;;;;;;2.90;0.70;;;;;;;7.47;100.00;99972.77;106524;1255;71190;-76
2023/01/12 05:33:50;;;;;;;2.80;0.60;;;;;;;7.44;100.00;99975.85;107097;1258;60550;-78
2023/01/12 05:36:19;;;;;;;3.30;0.70;;;;;;;7.45;100.00;99967.18;106734;1253;60763;-77
2023/01/12 05:38:46;;;;;;;2.60;0.60;;;;;;;7.45;99.92;99967.83;106359;1253;73605;-78
2023/01/12 05:41:13;;;;;;;2.60;0.80;;;;;;;7.46;99.96;99963.55;106472;1253;71222;-78
2023/01/12 05:43:50;;;;;;;3.00;0.80;;;;;;;7.47;100.00;99953.18;107734;1254;71205;-76
2023/01/12 05:46:17;;;;;;;1.10;0.50;;;;;;;7.47;99.98;99951.77;109281;1253;59638;-76
2023/01/12 05:48:45;;;;;;;3.80;0.70;;;;;;;7.48;100.00;99944.23;109158;1253;59466;-76
2023/01/12 05:51:12;;;;;;;2.00;0.80;;;;;;;7.49;99.67;99942.58;107615;1253;72820;-77
2023/01/12 05:53:40;;;;;;;2.90;1.00;;;;;;;7.49;99.24;99932.91;107961;1253;70893;-76
2023/01/12 05:56:10;;;;;;;2.00;0.50;;;;;;;7.53;99.38;99929.63;107689;1253;71693;-76
2023/01/12 05:58:39;;;;;;;2.10;0.70;;;;;;;7.54;98.62;99928.67;106990;1256;60546;-78
2023/01/12 06:01:09;;;;;;;2.10;0.50;;;;;;;7.56;98.61;99923.19;106566;1255;60866;-77
2023/01/12 06:03:36;;;;;;;3.50;1.00;;;;;;;7.56;98.64;99928.58;106460;1253;73917;-76
2023/01/12 06:06:04;;;;;;;2.10;0.70;;;;;;;7.57;98.49;99923.08;106654;1253;71347;-79
2023/01/12 06:08:31;;;;;;;3.00;0.60;;;;;;;7.55;98.93;99923.38;106840;1257;72374;-79
2023/01/12 06:11:02;;;;;;;2.00;0.60;;;;;;;7.55;98.94;99917.95;106395;1259;61021;-78
2023/01/12 06:16:15;;;;;;;1.90;0.40;;;;;;;7.54;98.76;99914.54;106324;1256;73991;-77
2023/01/12 06:18:41;;;;;;;1.90;0.70;;;;;;;7.53;98.87;99912.01;106250;1253;71258;-79
2023/01/12 06:21:09;;;;;;;2.80;1.00;;;;;;;7.53;98.75;99916.59;106304;1257;60857;-76
2023/01/12 06:23:36;;;;;;;2.50;0.60;;;;;;;7.55;99.09;99903.92;107031;1257;60533;-76
2023/01/12 06:26:05;;;;;;;2.90;0.80;;;;;;;7.54;99.20;99892.90;106849;1254;59374;-77
2023/01/12 06:28:37;;;;;;;4.60;0.60;;;;;;;7.55;99.27;99895.96;106081;1253;73701;-77
2023/01/12 06:31:07;;;;;;;1.60;0.70;;;;;;;7.54;99.35;99888.31;106202;1253;71422;-76
2023/01/12 06:33:34;;;;;;;1.60;0.60;;;;;;;7.54;99.33;99887.83;106541;1253;71130;-79
2023/01/12 06:36:02;;;;;;;2.10;0.90;;;;;;;7.56;99.10;99884.08;106497;1253;60426;-77
2023/01/12 06:38:31;;;;;;;2.30;0.50;;;;;;;7.57;99.00;99883.13;106520;1254;61105;-78
2023/01/12 06:41:03;;;;;;;2.90;0.60;;;;;;;7.59;98.91;99877.77;106363;1252;73493;-77
2023/01/12 06:43:29;;;;;;;1.60;0.50;;;;;;;7.59;98.78;99881.98;106387;1255;70973;-77
2023/01/12 06:45:57;;;;;;;2.70;0.70;;;;;;;7.59;98.88;99879.48;106918;1255;70698;-76
2023/01/12 06:48:25;;;;;;;3.50;0.60;;;;;;;7.59;98.17;99878.32;106430;1253;61112;-81
2023/01/12 06:51:05;;;;;;;2.20;0.50;;;;;;;7.61;97.80;99878.05;106919;1254;60310;-79
2023/01/12 06:53:32;;;;;;;1.60;0.50;;;;;;;7.63;98.33;99871.01;106531;1253;73068;-78
2023/01/12 06:55:59;;;;;;;2.00;0.60;;;;;;;7.63;98.14;99866.05;107470;1255;70218;-77
2023/01/12 06:58:27;;;;;;;1.60;0.60;;;;;;;7.62;98.31;99863.33;107838;1255;72015;-78
2023/01/12 07:00:59;;;;;;;1.50;0.40;;;;;;;7.62;97.88;99857.34;107760;1252;61000;-77
2023/01/12 07:03:26;;;;;;;2.20;0.50;;;;;;;7.63;97.62;99853.15;107772;1254;60482;-77
2023/01/12 07:05:56;;;;;;;1.30;0.40;;;;;;;7.64;97.41;99855.39;107580;1251;72693;-77
2023/01/12 07:08:24;;;;;;;1.20;0.50;;;;;;;7.66;97.38;99846.36;107379;1253;69056;-77
2023/01/12 07:10:51;;;;;;;2.60;0.60;;;;;;;7.65;97.30;99831.80;108743;1251;72362;-76
2023/01/12 07:13:18;;;;;;;2.20;0.40;;;;;;;7.65;97.29;99827.27;109061;1253;60900;-76
2023/01/12 07:15:45;;;;;;;1.30;0.30;;;;;;;7.66;96.93;99830.62;109229;1252;59564;-76
2023/01/12 07:18:12;;;;;;;1.50;0.40;;;;;;;7.69;96.49;99822.22;109196;1253;72744;-78
2023/01/12 07:20:39;;;;;;;1.70;0.80;;;;;;;7.71;96.68;99819.33;109161;1253;69718;-79
2023/01/12 07:23:07;;;;;;;1.00;0.30;;;;;;;7.72;95.71;99817.12;109169;1251;72019;-79
2023/01/12 07:25:34;;;;;;;1.40;0.50;;;;;;;7.77;95.70;99813.73;109104;1252;60262;-79
2023/01/12 07:28:01;;;;;;;2.50;0.50;;;;;;;7.77;95.25;99805.25;109052;1251;62151;-78
2023/01/12 07:30:27;;;;;;;1.70;0.40;;;;;;;7.80;94.75;99806.52;107587;1256;76157;-79
2023/01/12 07:33:04;;;;;;;1.70;0.30;;;;;;;7.82;94.23;99805.45;107660;1251;69703;-78
2023/01/12 07:35:31;;;;;;;2.70;0.50;;;;;;;7.85;94.40;99801.10;107422;1256;72795;-77
2023/01/12 07:38:08;;;;;;;1.40;0.40;;;;;;;7.85;94.24;99799.65;107627;1253;60450;-76
2023/01/12 07:40:39;;;;;;;1.20;0.40;;;;;;;7.85;94.34;99791.89;107593;1251;60635;-76
2023/01/12 07:43:12;;;;;;;1.70;0.40;;;;;;;7.85;94.13;99792.71;107559;1255;73894;-77
2023/01/12 07:45:42;;;;;;;1.30;0.50;;;;;;;7.84;94.34;99786.59;107779;1254;71323;-77
2023/01/12 07:48:22;;;;;;;1.40;0.40;;;;;;;7.78;94.65;99781.74;107550;1252;73783;-79
2023/01/12 07:50:50;;;;;;;2.40;0.50;;;;;;;7.75;94.74;99771.15;107693;1251;62347;-80
2023/01/12 07:53:18;;;;;;;1.90;0.40;;;;;;;7.73;95.36;99776.55;107541;1253;60435;-79
2023/01/12 07:55:45;;;;;;;1.90;0.50;;;;;;;7.69;95.35;99763.25;107694;1253;72479;-80
2023/01/12 07:58:15;;;;;;;3.30;0.70;;;;;;;7.65;96.49;99751.42;107829;1254;69971;-78
2023/01/12 08:00:42;;;;;;;4.50;1.10;;;;;;;7.61;96.70;99758.98;107654;1251;73807;-77
2023/01/12 08:03:11;;;;;;;2.10;0.70;;;;;;;7.59;97.50;99747.01;107421;1251;60348;-78
2023/01/12 08:05:38;;;;;;;2.50;0.60;;;;;;;7.56;97.78;99744.73;107594;1253;60390;-77
2023/01/12 08:08:06;;;;;;;2.40;0.50;;;;;;;7.52;97.79;99738.70;107849;1255;74083;-76
2023/01/12 08:10:33;;;;;;;1.00;0.30;;;;;;;7.50;98.00;99742.08;107922;1256;70042;-78
2023/01/12 08:13:00;;;;;;;1.50;0.50;;;;;;;7.48;97.96;99748.59;107334;1252;72692;-76
2023/01/12 08:15:32;;;;;;;2.20;0.50;;;;;;;7.47;98.43;99746.05;107639;1253;60424;-77
2023/01/12 08:18:06;;;;;;;1.40;0.50;;;;;;;7.47;98.14;99748.11;107753;1255;60191;-76
2023/01/12 08:20:35;;;;;;;2.00;0.50;;;;;;;7.47;98.49;99738.96;107604;1253;73688;-77
2023/01/12 08:23:16;;;;;;;1.30;0.50;;;;;;;7.45;98.99;99735.42;107240;1254;72578;-76
2023/01/12 08:25:53;;;;;;;2.40;0.50;;;;;;;7.43;98.82;99739.03;107763;1251;70198;-76
2023/01/12 08:28:25;;;;;;;1.90;0.50;;;;;;;7.44;98.66;99738.60;107693;1251;60604;-77
2023/01/12 08:30:53;;;;;;;1.70;0.40;;;;;;;7.45;98.50;99737.20;107348;1253;60375;-78
2023/01/12 08:33:20;;;;;;;1.10;0.40;;;;;;;7.46;98.30;99741.35;107597;1253;74748;-76
2023/01/12 08:35:52;;;;;;;3.20;0.60;;;;;;;7.47;98.33;99734.31;107775;1253;70501;-76
2023/01/12 08:38:19;;;;;;;2.70;0.50;;;;;;;7.48;98.46;99730.75;107650;1252;72568;-78
2023/01/12 08:46:20;;;;;;;1.90;0.40;;;;;;;7.53;97.72;99710.77;107479;1251;73943;-77
2023/01/12 08:48:52;;;;;;;1.40;0.40;;;;;;;7.56;97.62;99717.66;107891;1256;71298;-79
2023/01/12 08:51:19;;;;;;;1.30;0.40;;;;;;;7.59;97.42;99714.97;107707;1253;73625;-80
2023/01/12 08:53:47;;;;;;;1.80;0.40;;;;;;;7.64;97.22;99731.63;108029;1252;60497;-77
2023/01/12 08:56:14;;;;;;;2.00;0.30;;;;;;;7.67;96.35;99725.17;107796;1253;59349;-78
2023/01/12 08:58:46;;;;;;;2.10;0.50;;;;;;;7.71;95.82;99699.65;107713;1254;72808;-80
2023/01/12 09:01:21;;;;;;;3.10;0.50;;;;;;;7.76;95.25;99694.84;108037;1256;71260;-79
2023/01/12 09:03:51;;;;;;;1.10;0.30;;;;;;;7.79;95.06;99721.33;108158;1256;71289;-80
2023/01/12 09:06:28;;;;;;;5.60;4.70;;;;;;;7.85;94.65;99724.70;108267;1254;60902;-80
2023/01/12 09:09:01;;;;;;;1.70;0.50;;;;;;;7.89;94.83;99725.81;108323;1252;60022;-81
2023/01/12 09:11:29;;;;;;;1.70;0.40;;;;;;;7.91;94.41;99734.83;108151;1253;73794;-80
2023/01/12 09:13:57;;;;;;;1.10;0.30;;;;;;;7.95;94.62;99730.80;107983;1253;72281;-80
2023/01/12 09:16:26;;;;;;;1.40;0.40;;;;;;;7.97;94.03;99738.77;108042;1258;71183;-81
2023/01/12 09:18:55;;;;;;;1.60;0.50;;;;;;;8.00;93.96;99716.16;108083;1254;61318;-82
2023/01/12 09:21:25;;;;;;;1.30;0.40;;;;;;;8.04;94.33;99719.04;108178;1254;60029;-81
2023/01/12 09:23:53;;;;;;;1.50;0.60;;;;;;;8.06;94.16;99718.38;107603;1259;72595;-81
2023/01/12 09:26:22;;;;;;;1.70;0.50;;;;;;;8.10;94.18;99711.84;108270;1256;69937;-81
2023/01/12 09:29:27;;;;;;;2.40;0.70;;;;;;;8.14;93.26;99716.41;108101;1254;72824;-80
2023/01/12 09:31:54;;;;;;;1.80;0.50;;;;;;;8.23;92.61;99721.75;108189;1253;60425;-82
2023/01/12 09:34:30;;;;;;;2.20;0.70;;;;;;;8.30;92.36;99717.71;108113;1254;60293;-81
2023/01/12 09:37:00;;;;;;;1.60;0.60;;;;;;;8.33;92.43;99721.20;108050;1254;73028;-79
2023/01/12 09:39:27;;;;;;;2.60;0.40;;;;;;;8.36;92.06;99726.66;107704;1253;71286;-82
2023/01/12 09:48:00;;;;;;;1.40;0.60;;;;;;;8.53;91.60;99732.52;107872;1254;59307;-81
2023/01/12 09:50:34;;;;;;;2.10;0.60;;;;;;;8.56;91.26;99724.33;107546;1256;73146;-81
2023/01/12 09:53:30;;;;;;;1.00;0.40;;;;;;;8.55;91.28;99730.61;107079;1258;71910;-82
2023/01/12 09:56:10;;;;;;;2.20;0.70;;;;;;;8.55;91.74;99733.15;107239;1256;72584;-80
2023/01/12 09:59:06;;;;;;;3.40;1.10;;;;;;;8.56;91.92;99723.42;107029;1257;60877;-80
2023/01/12 10:01:36;;;;;;;2.80;0.80;;;;;;;8.63;92.16;99726.83;106982;1257;60863;-80
2023/01/12 10:04:04;;;;;;;1.50;0.60;;;;;;;8.65;91.45;99732.27;107190;1257;73573;-81
2023/01/12 10:06:32;;;;;;;0.80;0.20;;;;;;;8.69;91.36;99729.56;106755;1258;71179;-83
2023/01/12 10:12:48;;;;;;;1.10;0.40;;;;;;;8.68;92.16;99725.61;107447;1257;60563;-85
2023/01/12 10:15:27;;;;;;;1.30;0.50;;;;;;;8.70;92.24;99733.42;107699;1254;60336;-82
2023/01/12 10:18:03;;;;;;;1.40;0.30;;;;;;;8.69;92.55;99737.77;107398;1257;73902;-81
2023/01/12 10:20:40;;;;;;;1.00;0.30;;;;;;;8.69;92.76;99738.81;107398;1255;70993;-81
2023/01/12 10:23:13;;;;;;;1.10;0.30;;;;;;;8.63;93.33;99736.70;105241;1258;2844030;-82
2023/01/12 10:26:25;;;;;;;1.90;0.50;;;;;;;8.59;94.19;99733.95;107070;1254;60374;-81
2023/01/12 10:28:55;;;;;;;1.20;0.30;;;;;;;8.54;94.86;99729.34;107709;1257;60553;-81
2023/01/12 10:31:32;;;;;;;2.00;0.40;;;;;;;8.47;95.48;99721.00;106972;1252;72533;-80
2023/01/12 10:34:25;;;;;;;1.20;0.20;;;;;;;8.45;96.30;99730.70;107303;1253;69769;-80
2023/01/12 10:36:56;;;;;;;1.00;0.20;;;;;;;8.48;96.41;99729.80;106789;1257;73743;-80
2023/01/12 10:39:42;;;;;;;1.40;0.40;;;;;;;8.47;96.64;99727.34;106796;1258;60524;-81
2023/01/12 10:43:17;;;;;;;0.40;0.20;;;;;;;8.46;96.50;99733.44;106785;1257;60596;-82
2023/01/12 10:45:37;;;;;;;1.00;0.30;;;;;;;8.48;96.70;99730.13;107376;1253;74276;-80
2023/01/12 10:48:18;;;;;;;1.40;0.40;;;;;;;8.54;96.58;99723.58;107153;1258;71282;-81
2023/01/12 10:50:59;;;;;;;1.80;0.30;;;;;;;8.61;96.16;99733.48;106891;1257;72817;-77
2023/01/12 10:54:09;;;;;;;0.70;0.30;;;;;;;8.67;96.00;99733.79;106846;1257;61022;-82
2023/01/12 10:56:41;;;;;;;2.80;0.50;;;;;;;8.75;95.76;99723.19;106776;1255;60431;-80
2023/01/12 10:59:20;;;;;;;0.90;0.10;;;;;;;8.84;95.59;99724.14;107101;1256;73594;-80
2023/01/12 11:02:22;;;;;;;0.60;0.20;;;;;;;8.90;95.30;99722.85;106873;1257;69698;-80
2023/01/12 11:04:58;;;;;;;0.20;0.20;;;;;;;8.98;95.66;99722.14;107335;1254;71983;-81
2023/01/12 11:07:34;;;;;;;0.70;0.30;;;;;;;9.04;95.62;99723.29;106688;1251;61575;-80
2023/01/12 11:10:43;;;;;;;0.30;0.20;;;;;;;9.10;95.83;99716.38;107041;1255;60520;-80
2023/01/12 11:13:36;;;;;;;0.40;0.20;;;;;;;9.17;95.61;99724.63;106950;1255;71964;-81
2023/01/12 11:16:12;;;;;;;0.40;0.10;;;;;;;9.24;95.27;99721.52;106757;1258;71372;-80
2023/01/12 11:19:25;;;;;;;1.70;0.20;;;;;;;9.29;95.23;99719.47;107194;1251;71680;-84
2023/01/12 11:22:12;;;;;;;0.50;0.10;;;;;;;9.32;95.57;99723.30;107617;1251;61678;-79
2023/01/12 11:24:59;;;;;;;0.40;0.10;;;;;;;9.35;95.73;99728.58;108150;1252;60290;-81
2023/01/12 11:27:39;;;;;;;0.60;0.20;;;;;;;9.37;95.73;99731.15;107591;1251;72354;-81
2023/01/12 11:30:32;;;;;;;0.20;0.10;;;;;;;9.43;96.00;99722.53;107084;1259;70348;-81
2023/01/12 11:33:11;;;;;;;1.00;0.30;;;;;;;9.47;96.41;99723.21;108611;1251;71974;-81
2023/01/12 11:35:58;;;;;;;0.90;0.20;;;;;;;9.51;96.72;99716.39;108993;1254;61688;-81
2023/01/12 11:38:42;;;;;;;1.40;0.40;;;;;;;9.54;96.84;99718.29;107728;1253;60718;-81
2023/01/12 11:41:25;;;;;;;1.10;0.20;;;;;;;9.54;97.02;99720.70;107119;1256;74935;-80
2023/01/12 11:44:04;;;;;;;1.00;0.30;;;;;;;9.56;96.96;99720.34;107193;1251;71237;-80
2023/01/12 11:46:41;;;;;;;1.20;0.30;;;;;;;9.56;96.43;99734.56;107224;1253;72374;-80
2023/01/12 11:49:16;;;;;;;1.10;0.40;;;;;;;9.63;96.45;99712.79;107562;1254;60448;-82
2023/01/12 11:51:48;;;;;;;1.50;0.50;;;;;;;9.68;96.22;99711.44;106869;1251;60502;-81
2023/01/12 11:54:16;;;;;;;0.60;0.30;;;;;;;9.70;95.97;99714.27;107142;1256;72503;-82
2023/01/12 11:57:22;;;;;;;1.60;0.40;;;;;;;9.74;95.56;99707.45;107259;1254;69488;-81
2023/01/12 12:00:36;;;;;;;2.90;0.50;;;;;;;9.78;95.20;99712.52;107007;1251;71285;-82
2023/01/12 12:03:24;;;;;;;1.10;0.40;;;;;;;9.84;95.37;99716.15;107790;1251;63433;-82
2023/01/12 12:06:04;;;;;;;1.20;0.30;;;;;;;9.87;95.27;99709.98;107524;1254;60511;-82
2023/01/12 12:09:10;;;;;;;0.90;0.30;;;;;;;9.90;95.22;99705.46;107494;1256;72667;-81
2023/01/12 12:11:54;;;;;;;3.00;0.40;;;;;;;9.95;95.08;99694.20;108748;1254;71069;-81
2023/01/12 12:14:34;;;;;;;1.10;0.20;;;;;;;9.99;94.86;99694.02;108411;1254;71823;-81
2023/01/12 12:17:36;;;;;;;1.30;0.40;;;;;;;10.05;94.36;99697.57;107677;1256;63040;-81
2023/01/12 12:20:40;;;;;;;1.80;0.40;;;;;;;10.09;93.91;99713.60;107224;1254;60360;-80
2023/01/12 12:23:22;;;;;;;1.00;0.50;;;;;;;10.17;93.61;99702.27;108119;1251;72635;-81
2023/01/12 12:26:16;;;;;;;1.80;0.30;;;;;;;10.23;93.32;99697.67;109124;1251;71261;-81
2023/01/12 12:29:11;;;;;;;1.40;0.30;;;;;;;10.27;93.06;99706.59;108780;1251;71165;-81
2023/01/12 12:31:46;;;;;;;2.00;0.40;;;;;;;10.31;92.98;99708.77;108324;1256;61659;-82
2023/01/12 12:34:13;;;;;;;2.00;0.30;;;;;;;10.32;93.00;99705.05;107711;1253;60431;-81
2023/01/12 12:37:03;;;;;;;2.50;0.30;;;;;;;10.33;92.88;99709.59;107305;1253;60455;-82
2023/01/12 12:39:55;;;;;;;2.90;0.40;;;;;;;10.33;93.29;99702.05;107311;1251;69437;-83
2023/01/12 12:45:39;;;;;;;1.60;0.20;;;;;;;10.42;93.31;99705.02;107315;1256;60566;-85